createdAt,value
2019-04-21T00:01:14.434Z,8.33
2019-04-21T00:03:50.146Z,7.90
2019-04-21T00:06:36.829Z,7.80
2019-04-21T00:09:14.593Z,8.47
2019-04-21T00:11:35.686Z,8.17
2019-04-21T00:14:01.913Z,8.97
2019-04-21T00:16:29.057Z,10.30
2019-04-21T00:19:24.911Z,10.57
2019-04-21T00:21:55.430Z,10.00
2019-04-21T00:24:37.016Z,9.87
2019-04-21T00:27:11.191Z,8.90
2019-04-21T00:29:49.699Z,8.60
2019-04-21T00:32:10.517Z,8.80
2019-04-21T00:34:25.861Z,9.03
2019-04-21T00:37:05.758Z,8.53
2019-04-21T00:39:55.809Z,9.17
2019-04-21T00:42:19.468Z,8.60
2019-04-21T00:44:38.877Z,9.20
2019-04-21T00:47:25.497Z,9.03
2019-04-21T00:49:57.930Z,9.43
2019-04-21T00:55:30.968Z,9.83
2019-04-21T01:00:22.330Z,8.90
2019-04-21T01:02:57.553Z,9.60
2019-04-21T01:05:21.145Z,10.00
2019-04-21T01:07:50.611Z,9.07
2019-04-21T01:10:19.790Z,9.10
2019-04-21T01:12:56.023Z,9.67
2019-04-21T01:17:56.061Z,9.37
2019-04-21T01:20:16.751Z,10.00
2019-04-21T01:22:40.132Z,8.97
2019-04-21T01:25:20.167Z,10.07
2019-04-21T01:27:54.150Z,10.13
2019-04-21T01:30:34.504Z,9.70
2019-04-21T01:33:07.592Z,13.23
2019-04-21T01:35:32.965Z,13.07
2019-04-21T01:38:08.134Z,12.27
2019-04-21T01:40:42.227Z,11.27
2019-04-21T01:43:08.008Z,10.00
2019-04-21T01:45:37.033Z,9.43
2019-04-21T01:48:06.555Z,9.77
2019-04-21T01:50:36.317Z,10.23
2019-04-21T01:53:22.451Z,8.27
2019-04-21T01:56:11.865Z,7.80
2019-04-21T01:58:36.269Z,8.13
2019-04-21T02:01:16.013Z,8.33
2019-04-21T02:03:52.817Z,8.37
2019-04-21T02:06:21.178Z,8.30
2019-04-21T02:08:49.435Z,8.53
2019-04-21T02:11:26.132Z,8.43
2019-04-21T02:14:06.007Z,8.03
2019-04-21T02:16:30.033Z,8.43
2019-04-21T02:18:56.845Z,8.43
2019-04-21T02:21:21.667Z,8.77
2019-04-21T02:24:07.095Z,8.53
2019-04-21T02:26:37.493Z,8.93
2019-04-21T02:29:07.083Z,9.50
2019-04-21T02:31:45.311Z,9.03
2019-04-21T02:34:27.563Z,8.80
2019-04-21T02:36:57.045Z,9.07
2019-04-21T02:39:19.278Z,8.23
2019-04-21T02:41:48.958Z,8.83
2019-04-21T02:44:18.449Z,8.20
2019-04-21T02:46:42.172Z,8.73
2019-04-21T02:49:31.118Z,9.13
2019-04-21T02:54:45.735Z,9.43
2019-04-21T02:56:57.233Z,8.93
2019-04-21T03:05:20.695Z,9.80
2019-04-21T03:10:27.717Z,9.50
2019-04-21T03:12:44.159Z,8.93
2019-04-21T03:15:23.567Z,9.40
2019-04-21T03:20:25.509Z,9.90
2019-04-21T03:22:58.080Z,9.73
2019-04-21T03:30:53.058Z,10.60
2019-04-21T03:33:24.631Z,10.27
2019-04-21T03:36:04.585Z,10.20
2019-04-21T03:38:05.331Z,10.87
2019-04-21T03:40:28.726Z,11.53
2019-04-21T03:42:59.103Z,10.87
2019-04-21T03:48:05.226Z,10.60
2019-04-21T03:50:37.240Z,10.50
2019-04-21T03:53:06.819Z,11.47
2019-04-21T04:06:24.507Z,11.27
2019-04-21T04:09:11.149Z,12.63
2019-04-21T04:16:37.498Z,11.00
2019-04-21T04:21:45.014Z,10.80
2019-04-21T04:24:04.362Z,11.57
2019-04-21T04:39:43.402Z,11.03
2019-04-21T04:42:12.550Z,11.33
2019-04-21T04:44:51.918Z,11.53
2019-04-21T04:47:12.297Z,10.97
2019-04-21T04:54:49.116Z,11.77
2019-04-21T04:57:14.262Z,12.33
2019-04-21T04:59:42.495Z,11.63
2019-04-21T05:07:13.800Z,11.57
2019-04-21T05:09:48.032Z,10.83
2019-04-21T05:12:10.153Z,10.97
2019-04-21T05:14:48.239Z,10.93
2019-04-21T05:17:24.884Z,11.27
2019-04-21T05:19:54.046Z,10.93
2019-04-21T05:22:19.624Z,10.83
2019-04-21T05:24:37.527Z,11.17
2019-04-21T05:27:07.478Z,11.03
2019-04-21T05:29:53.550Z,11.43
2019-04-21T05:32:36.213Z,11.37
2019-04-21T05:35:08.203Z,11.40
2019-04-21T05:37:58.648Z,11.30
2019-04-21T05:40:29.300Z,10.90
2019-04-21T05:43:14.114Z,10.73
2019-04-21T05:45:44.190Z,9.77
2019-04-21T05:48:28.639Z,9.43
2019-04-21T05:50:51.645Z,9.77
2019-04-21T05:53:29.543Z,9.07
2019-04-21T05:55:58.634Z,8.97
2019-04-21T05:58:29.928Z,10.17
2019-04-21T06:06:13.678Z,9.97
2019-04-21T06:08:38.678Z,9.83
2019-04-21T06:11:22.169Z,10.07
2019-04-21T06:16:30.294Z,9.40
2019-04-21T06:18:47.998Z,9.33
2019-04-21T06:21:11.499Z,10.60
2019-04-21T06:23:43.586Z,9.90
2019-04-21T06:26:46.936Z,9.47
2019-04-21T06:28:45.988Z,10.00
2019-04-21T06:31:31.791Z,10.20
2019-04-21T06:41:32.125Z,10.90
2019-04-21T06:44:04.165Z,9.60
2019-04-21T06:51:30.682Z,9.33
2019-04-21T06:54:06.577Z,10.57
2019-04-21T06:56:36.535Z,10.07
2019-04-21T06:59:00.750Z,9.60
2019-04-21T07:01:36.329Z,9.57
2019-04-21T07:04:13.278Z,10.07
2019-04-21T07:06:45.762Z,10.90
2019-04-21T07:09:15.967Z,10.07
2019-04-21T07:11:40.414Z,9.90
2019-04-21T07:16:44.691Z,9.23
2019-04-21T07:19:21.390Z,9.83
2019-04-21T07:21:38.487Z,9.30
2019-04-21T07:24:14.151Z,9.57
2019-04-21T07:26:44.754Z,9.60
2019-04-21T07:29:17.030Z,10.03
2019-04-21T07:31:48.148Z,9.60
2019-04-21T07:34:13.951Z,10.10
2019-04-21T07:36:52.621Z,10.40
2019-04-21T07:39:15.300Z,9.77
2019-04-21T07:41:38.791Z,10.60
2019-04-21T07:44:08.729Z,9.67
2019-04-21T07:46:38.606Z,9.97
2019-04-21T07:49:44.693Z,10.07
2019-04-21T07:52:28.264Z,9.30
2019-04-21T07:55:05.916Z,10.13
2019-04-21T07:57:23.467Z,9.40
2019-04-21T08:00:10.183Z,9.60
2019-04-21T08:02:30.798Z,9.87
2019-04-21T08:05:07.430Z,9.60
2019-04-21T08:07:41.822Z,9.47
2019-04-21T08:09:57.258Z,9.10
2019-04-21T08:12:24.348Z,9.70
2019-04-21T08:15:07.697Z,18.63
2019-04-21T08:17:30.705Z,12.83
2019-04-21T08:19:59.135Z,9.93
2019-04-21T08:22:32.174Z,9.23
2019-04-21T08:25:02.903Z,9.57
2019-04-21T08:27:40.413Z,9.30
2019-04-21T08:30:05.041Z,9.33
2019-04-21T08:32:46.631Z,9.63
2019-04-21T08:37:41.789Z,9.73
2019-04-21T08:42:41.534Z,8.95
2019-04-21T08:45:15.118Z,8.65
2019-04-21T08:47:46.242Z,9.20
2019-04-21T08:50:08.462Z,8.43
2019-04-21T08:55:22.550Z,8.20
2019-04-21T08:58:15.565Z,8.80
2019-04-21T09:00:56.586Z,9.13
2019-04-21T09:03:35.508Z,8.77
2019-04-21T09:06:13.681Z,9.70
2019-04-21T09:08:39.570Z,8.13
2019-04-21T09:11:07.776Z,8.47
2019-04-21T09:13:37.143Z,8.10
2019-04-21T09:16:08.524Z,8.83
2019-04-21T09:18:39.335Z,8.77
2019-04-21T09:21:14.819Z,7.80
2019-04-21T09:23:39.158Z,8.47
2019-04-21T09:26:15.330Z,8.63
2019-04-21T09:28:40.849Z,7.80
2019-04-21T09:31:03.261Z,8.50
2019-04-21T09:33:36.215Z,7.90
2019-04-21T09:36:04.628Z,8.27
2019-04-21T09:38:37.138Z,12.67
2019-04-21T09:41:02.741Z,7.60
2019-04-21T09:43:40.244Z,8.40
2019-04-21T09:46:03.966Z,7.80
2019-04-21T09:48:44.554Z,8.87
2019-04-21T09:51:04.236Z,8.23
2019-04-21T09:53:37.746Z,7.80
2019-04-21T09:56:08.284Z,7.57
2019-04-21T09:58:40.710Z,7.57
2019-04-21T10:01:15.963Z,8.37
2019-04-21T10:03:43.483Z,8.23
2019-04-21T10:06:07.168Z,8.03
2019-04-21T10:08:36.502Z,7.67
2019-04-21T10:11:05.555Z,7.80
2019-04-21T10:13:34.487Z,8.00
2019-04-21T10:16:58.108Z,8.33
2019-04-21T10:19:25.501Z,8.00
2019-04-21T10:21:54.605Z,7.97
2019-04-21T10:24:24.480Z,7.37
2019-04-21T10:26:53.624Z,7.40
2019-04-21T10:29:26.469Z,7.63
2019-04-21T10:31:54.552Z,7.10
2019-04-21T10:34:25.214Z,7.47
2019-04-21T10:36:55.338Z,7.13
2019-04-21T10:39:24.538Z,6.97
2019-04-21T10:41:53.636Z,6.60
2019-04-21T10:44:23.150Z,6.63
2019-04-21T10:46:54.155Z,7.60
2019-04-21T10:49:24.390Z,6.63
2019-04-21T10:51:54.904Z,6.90
2019-04-21T10:54:24.182Z,6.37
2019-04-21T10:56:54.510Z,6.27
2019-04-21T10:59:25.003Z,6.33
2019-04-21T11:01:55.295Z,6.53
2019-04-21T11:04:34.638Z,5.50
2019-04-21T11:07:06.694Z,5.60
2019-04-21T11:09:33.952Z,5.33
2019-04-21T11:12:04.093Z,5.87
2019-04-21T11:14:33.442Z,5.37
2019-04-21T11:17:04.009Z,5.70
2019-04-21T11:19:33.047Z,15.67
2019-04-21T11:22:02.983Z,5.90
2019-04-21T11:24:33.172Z,5.30
2019-04-21T11:27:04.689Z,4.93
2019-04-21T11:29:34.979Z,5.40
2019-04-21T11:32:05.218Z,5.23
2019-04-21T11:34:34.555Z,4.83
2019-04-21T11:37:04.428Z,5.43
2019-04-21T11:39:42.063Z,5.47
2019-04-21T11:42:12.069Z,5.40
2019-04-21T11:44:41.721Z,5.40
2019-04-21T11:47:18.681Z,5.47
2019-04-21T11:49:47.670Z,5.47
2019-04-21T11:52:16.822Z,5.20
2019-04-21T11:54:46.785Z,5.47
2019-04-21T11:57:23.963Z,4.90
2019-04-21T11:59:47.897Z,4.70
2019-04-21T12:02:17.369Z,5.10
2019-04-21T12:04:47.531Z,4.73
2019-04-21T12:07:17.551Z,5.03
2019-04-21T12:09:47.793Z,5.20
2019-04-21T12:12:17.156Z,5.40
2019-04-21T12:14:46.556Z,4.93
2019-04-21T12:17:16.317Z,5.17
2019-04-21T12:19:46.169Z,5.33
2019-04-21T12:22:21.353Z,5.13
2019-04-21T12:24:47.103Z,5.83
2019-04-21T12:27:16.298Z,5.63
2019-04-21T12:29:46.112Z,5.40
2019-04-21T12:32:49.449Z,5.83
2019-04-21T12:35:19.690Z,6.33
2019-04-21T12:37:49.060Z,6.30
2019-04-21T12:40:18.778Z,5.20
2019-04-21T12:42:48.393Z,5.30
2019-04-21T12:45:17.662Z,5.30
2019-04-21T12:47:49.934Z,5.33
2019-04-21T12:50:19.688Z,5.57
2019-04-21T12:52:49.633Z,5.73
2019-04-21T12:55:19.721Z,6.17
2019-04-21T12:57:49.557Z,5.20
2019-04-21T13:00:20.780Z,4.57
2019-04-21T13:02:50.081Z,5.00
2019-04-21T13:05:19.953Z,5.00
2019-04-21T13:07:49.574Z,5.57
2019-04-21T13:10:20.227Z,5.43
2019-04-21T13:12:50.048Z,5.20
2019-04-21T13:15:19.907Z,5.17
2019-04-21T13:17:50.228Z,5.37
2019-04-21T13:20:19.499Z,4.73
2019-04-21T13:22:48.550Z,4.33
2019-04-21T13:25:18.075Z,4.83
2019-04-21T13:27:47.360Z,4.80
2019-04-21T13:30:18.118Z,4.57
2019-04-21T13:32:47.370Z,4.57
2019-04-21T13:35:17.068Z,5.03
2019-04-21T13:37:47.671Z,4.67
2019-04-21T13:40:53.379Z,4.27
2019-04-21T13:43:08.272Z,4.70
2019-04-21T13:45:37.336Z,4.10
2019-04-21T13:48:06.702Z,4.50
2019-04-21T13:50:37.204Z,4.33
2019-04-21T13:53:06.920Z,4.60
2019-04-21T13:55:37.088Z,4.37
2019-04-21T13:58:08.410Z,4.47
2019-04-21T14:00:38.094Z,4.67
2019-04-21T14:03:12.517Z,4.17
2019-04-21T14:05:46.395Z,4.90
2019-04-21T14:08:15.658Z,4.10
2019-04-21T14:10:44.771Z,4.47
2019-04-21T14:13:14.323Z,4.70
2019-04-21T14:15:46.264Z,5.53
2019-04-21T14:18:15.019Z,4.40
2019-04-21T14:20:44.979Z,4.50
2019-04-21T14:23:23.184Z,5.13
2019-04-21T14:25:45.784Z,4.30
2019-04-21T14:28:15.663Z,4.37
2019-04-21T14:30:46.046Z,4.50
2019-04-21T14:33:16.125Z,4.50
2019-04-21T14:35:47.018Z,4.60
2019-04-21T14:38:16.524Z,4.17
2019-04-21T14:40:50.318Z,4.70
2019-04-21T14:43:20.413Z,4.77
2019-04-21T14:45:58.986Z,4.43
2019-04-21T14:48:47.070Z,4.50
2019-04-21T14:51:38.888Z,4.43
2019-04-21T14:54:22.531Z,4.30
2019-04-21T14:56:51.719Z,4.53
2019-04-21T14:59:21.379Z,4.53
2019-04-21T15:01:51.703Z,4.60
2019-04-21T15:04:22.289Z,4.37
2019-04-21T15:06:51.782Z,4.83
2019-04-21T15:09:21.173Z,4.73
2019-04-21T15:11:50.225Z,4.80
2019-04-21T15:14:20.115Z,4.50
2019-04-21T15:16:49.191Z,4.97
2019-04-21T15:19:18.195Z,5.00
2019-04-21T15:21:48.106Z,4.50
2019-04-21T15:24:18.318Z,4.23
2019-04-21T15:26:48.404Z,4.40
2019-04-21T15:29:18.541Z,4.50
2019-04-21T15:31:48.390Z,4.60
2019-04-21T15:34:17.543Z,4.97
2019-04-21T15:36:48.118Z,6.43
2019-04-21T15:39:17.423Z,4.40
2019-04-21T15:41:46.457Z,4.43
2019-04-21T15:44:16.554Z,4.57
2019-04-21T15:46:46.132Z,4.37
2019-04-21T15:49:15.432Z,3.90
2019-04-21T15:51:44.456Z,4.67
2019-04-21T15:54:14.409Z,4.87
2019-04-21T15:57:02.878Z,4.33
2019-04-21T15:59:48.488Z,4.33
2019-04-21T16:02:36.783Z,4.67
2019-04-21T16:05:06.805Z,4.43
2019-04-21T16:07:36.246Z,5.20
2019-04-21T16:10:08.683Z,4.77
2019-04-21T16:12:37.912Z,5.07
2019-04-21T16:15:08.511Z,5.20
2019-04-21T16:17:37.641Z,4.63
2019-04-21T16:20:08.060Z,4.30
2019-04-21T16:22:37.273Z,4.47
2019-04-21T16:25:06.756Z,4.20
2019-04-21T16:27:37.151Z,4.17
2019-04-21T16:30:07.939Z,4.00
2019-04-21T16:32:38.423Z,4.50
2019-04-21T16:35:10.680Z,4.10
2019-04-21T16:37:39.520Z,4.40
2019-04-21T16:40:09.513Z,4.30
2019-04-21T16:42:38.677Z,4.70
2019-04-21T16:45:08.497Z,4.40
2019-04-21T16:47:38.029Z,4.33
2019-04-21T16:50:09.856Z,4.40
2019-04-21T16:52:48.020Z,4.20
2019-04-21T16:55:28.898Z,4.37
2019-04-21T16:58:22.120Z,3.77
2019-04-21T17:01:01.162Z,4.60
2019-04-21T17:03:24.318Z,4.40
2019-04-21T17:05:54.219Z,24.50
2019-04-21T17:08:24.000Z,5.20
2019-04-21T17:11:03.072Z,4.67
2019-04-21T17:13:24.648Z,4.63
2019-04-21T17:16:15.328Z,4.13
2019-04-21T17:18:45.728Z,3.80
2019-04-21T17:21:00.616Z,4.10
2019-04-21T17:23:27.324Z,4.30
2019-04-21T17:25:57.155Z,29.10
2019-04-21T17:28:27.497Z,4.50
2019-04-21T17:31:04.757Z,3.70
2019-04-21T17:33:35.461Z,4.00
2019-04-21T17:36:05.061Z,3.83
2019-04-21T17:38:34.395Z,4.53
2019-04-21T17:41:13.931Z,4.50
2019-04-21T17:43:37.418Z,5.83
2019-04-21T17:46:06.871Z,4.97
2019-04-21T17:48:36.624Z,4.20
2019-04-21T17:51:25.630Z,4.70
2019-04-21T17:54:25.774Z,4.13
2019-04-21T17:57:15.355Z,4.73
2019-04-21T17:59:52.273Z,4.37
2019-04-21T18:02:11.017Z,4.30
2019-04-21T18:04:42.633Z,5.07
2019-04-21T18:07:31.652Z,4.30
2019-04-21T18:10:05.030Z,4.93
2019-04-21T18:12:32.225Z,4.43
2019-04-21T18:14:56.527Z,4.10
2019-04-21T18:17:20.697Z,5.77
2019-04-21T18:19:51.823Z,5.17
2019-04-21T18:22:58.560Z,4.87
2019-04-21T18:25:43.862Z,5.23
2019-04-21T18:28:08.224Z,6.70
2019-04-21T18:30:56.303Z,7.47
2019-04-21T18:33:32.087Z,6.00
2019-04-21T18:36:30.263Z,5.57
2019-04-21T18:39:27.573Z,6.67
2019-04-21T18:42:05.057Z,5.87
2019-04-21T18:44:58.373Z,5.93
2019-04-21T18:47:32.642Z,6.00
2019-04-21T18:49:48.557Z,5.90
2019-04-21T18:52:42.766Z,6.03
2019-04-21T18:55:09.451Z,6.37
2019-04-21T18:57:37.575Z,6.23
2019-04-21T18:59:59.473Z,6.07
2019-04-21T19:02:38.442Z,5.80
2019-04-21T19:05:07.447Z,5.57
2019-04-21T19:07:52.019Z,5.80
2019-04-21T19:15:23.617Z,6.67
2019-04-21T19:18:27.768Z,5.47
2019-04-21T19:20:26.005Z,5.60
2019-04-21T19:22:52.304Z,6.63
2019-04-21T19:25:26.968Z,5.57
2019-04-21T19:27:54.336Z,5.57
2019-04-21T19:30:36.659Z,5.30
2019-04-21T19:32:59.497Z,15.53
2019-04-21T19:35:13.464Z,6.07
2019-04-21T19:37:51.187Z,6.17
2019-04-21T19:40:30.695Z,5.90
2019-04-21T19:42:55.927Z,5.80
2019-04-21T19:45:33.214Z,6.10
2019-04-21T19:48:08.148Z,5.93
2019-04-21T19:50:41.211Z,5.83
2019-04-21T19:52:57.730Z,5.93
2019-04-21T19:55:20.067Z,5.27
2019-04-21T19:57:49.431Z,6.10
2019-04-21T20:00:19.425Z,6.13
2019-04-21T20:03:03.132Z,7.13
2019-04-21T20:05:42.776Z,7.70
2019-04-21T20:08:17.661Z,7.20
2019-04-21T20:10:55.004Z,7.17
2019-04-21T20:13:36.500Z,7.30
2019-04-21T20:15:57.028Z,7.53
2019-04-21T20:18:22.295Z,7.53
2019-04-21T20:20:39.665Z,7.00
2019-04-21T20:23:15.695Z,7.00
2019-04-21T20:25:47.459Z,6.87
2019-04-21T20:28:21.257Z,7.13
2019-04-21T20:31:01.459Z,7.17
2019-04-21T20:33:50.595Z,7.13
2019-04-21T20:36:06.243Z,7.77
2019-04-21T20:38:28.312Z,7.77
2019-04-21T20:40:53.691Z,8.03
2019-04-21T20:43:38.446Z,7.93
2019-04-21T20:46:08.250Z,7.90
2019-04-21T20:48:34.450Z,7.43
2019-04-21T20:51:23.708Z,7.40
2019-04-21T20:53:36.232Z,7.47
2019-04-21T20:56:02.405Z,8.10
2019-04-21T20:58:40.318Z,7.30
2019-04-21T21:01:28.127Z,7.03
2019-04-21T21:03:46.350Z,7.50
2019-04-21T21:06:15.722Z,7.60
2019-04-21T21:08:48.226Z,7.67
2019-04-21T21:11:22.233Z,8.30
2019-04-21T21:13:48.800Z,7.13
2019-04-21T21:16:20.885Z,7.70
2019-04-21T21:21:22.423Z,7.50
2019-04-21T21:23:53.511Z,7.20
2019-04-21T21:26:25.804Z,6.67
2019-04-21T21:28:48.663Z,7.83
2019-04-21T21:31:25.127Z,7.63
2019-04-21T21:36:27.453Z,7.23
2019-04-21T21:38:59.526Z,7.30
2019-04-21T21:41:19.916Z,7.13
2019-04-21T21:43:45.191Z,7.27
2019-04-21T21:46:31.254Z,6.90
2019-04-21T21:48:59.136Z,8.00
2019-04-21T21:51:26.993Z,8.40
2019-04-21T21:53:46.368Z,8.00
2019-04-21T21:56:16.469Z,7.70
2019-04-21T21:58:47.876Z,7.87
2019-04-21T22:01:23.036Z,8.53
2019-04-21T22:03:52.554Z,7.70
2019-04-21T22:06:23.056Z,8.57
2019-04-21T22:08:50.430Z,8.00
2019-04-21T22:11:20.109Z,8.33
2019-04-21T22:13:55.695Z,8.13
2019-04-21T22:16:22.956Z,9.50
2019-04-21T22:19:15.202Z,8.10
2019-04-21T22:21:41.291Z,8.17
2019-04-21T22:24:02.809Z,7.87
2019-04-21T22:26:25.296Z,7.50
2019-04-21T22:28:55.838Z,8.43
2019-04-21T22:31:31.813Z,7.47
2019-04-21T22:34:02.118Z,8.40
2019-04-21T22:36:42.484Z,7.70
2019-04-21T22:39:15.085Z,7.63
2019-04-21T22:41:34.599Z,7.63
2019-04-21T22:43:59.864Z,7.20
2019-04-21T22:46:30.630Z,7.67
2019-04-21T22:49:07.204Z,8.77
2019-04-21T22:51:38.395Z,7.77
2019-04-21T22:54:04.156Z,7.00
2019-04-21T22:56:34.120Z,6.17
2019-04-21T22:59:10.898Z,6.83
2019-04-21T23:01:43.492Z,6.70
2019-04-21T23:04:10.689Z,6.50
2019-04-21T23:06:41.257Z,5.87
2019-04-21T23:09:12.610Z,6.00
2019-04-21T23:11:47.429Z,5.40
2019-04-21T23:14:15.355Z,5.93
2019-04-21T23:16:46.292Z,5.63
2019-04-21T23:19:31.184Z,6.00
2019-04-21T23:22:05.632Z,5.70
2019-04-21T23:24:42.085Z,6.40
2019-04-21T23:27:03.569Z,6.03
2019-04-21T23:29:47.820Z,6.07
2019-04-21T23:32:06.384Z,5.40
2019-04-21T23:34:25.240Z,5.43
2019-04-21T23:36:59.058Z,6.53
2019-04-21T23:39:27.327Z,6.10
2019-04-21T23:41:53.926Z,6.33
2019-04-21T23:44:24.126Z,5.50
2019-04-21T23:46:57.567Z,5.73
2019-04-21T23:49:35.211Z,5.50
2019-04-21T23:52:01.459Z,5.70
2019-04-21T23:54:27.238Z,5.13
2019-04-21T23:56:57.984Z,5.60
2019-04-21T23:59:31.223Z,5.73
